Morning Calm — C6TM5 — position and weather

sailwx.info

Track history (hours):
 
Tides and Currents Weather Stations Pressure Air Temp Water Temp Dewpoint Dewpoint Depression Visibility Wind Speed Wind Dir Waves Ship Positions

Morning Calm

Last reported at 2017-Oct-18 14:42 UTC. Time now 2017-Oct-20 05:30 UTC.
Position N 01°15' E 104°12'.

Length 199 m; draft 9.1 m.

Type: Cargo ship. MMSI: 311696980.

Date/timePositionNaut miles runAvg speedWind from/ knotsBaromVisibWave heightAir tempDewpointWater temp
2017-Oct-18 14:42N 01°15' E 104°12'3 4.1
2017-Oct-18 14:00N 01°15' E 104°09'2 4.2
2017-Oct-18 13:29N 01°15' E 104°07'2 3.8
2017-Oct-18 13:00N 01°14' E 104°05'2 4.0
2017-Oct-18 12:30N 01°14' E 104°03'2 3.9
2017-Oct-18 12:00N 01°14' E 104°01'7 0.9
2017-Oct-18 03:38N 01°15' E 104°08'213.6
2017-Oct-18 03:31N 01°15' E 104°06'713.0
2017-Oct-18 03:00N 01°14' E 103°60'613.0
2017-Oct-18 02:31N 01°12' E 103°54'5 9.5
2017-Oct-18 02:00N 01°12' E 103°49'5 9.7
2017-Oct-18 01:31N 01°16' E 103°46'2 2.5
2017-Oct-18 00:51N 01°17' E 103°45'0 0.0
2017-Oct-18 00:30N 01°17' E 103°45'0 0.0
2017-Oct-17 23:45N 01°17' E 103°45'0 0.0
2017-Oct-17 23:27N 01°17' E 103°45'0 0.0
2017-Oct-17 22:54N 01°17' E 103°45'0 0.0
2017-Oct-17 22:27N 01°17' E 103°45'0 0.0
2017-Oct-17 21:51N 01°17' E 103°45'0 0.0
2017-Oct-17 21:30N 01°17' E 103°45'0 0.0
2017-Oct-17 20:54N 01°17' E 103°45'0 0.0
2017-Oct-17 20:18N 01°17' E 103°45'0 0.0
2017-Oct-17 19:51N 01°17' E 103°45'0 0.0
2017-Oct-17 19:30N 01°17' E 103°45'0 0.0
2017-Oct-17 19:00N 01°17' E 103°45'0 0.0
2017-Oct-17 18:30N 01°17' E 103°45'0 0.0
2017-Oct-17 17:33N 01°17' E 103°45'0 0.0
2017-Oct-17 17:18N 01°17' E 103°45'0 0.0
2017-Oct-17 16:57N 01°17' E 103°45'0 0.0
2017-Oct-17 16:18N 01°17' E 103°45'0 0.0
2017-Oct-17 15:50N 01°17' E 103°45'0 0.0
2017-Oct-17 15:08N 01°17' E 103°45'0 0.0
2017-Oct-17 14:35N 01°17' E 103°45'0 0.0
2017-Oct-17 14:20N 01°17' E 103°45'0 0.0
2017-Oct-17 13:50N 01°17' E 103°45'0 0.5
2017-Oct-17 13:30N 01°17' E 103°45'2 4.5
2017-Oct-17 13:00N 01°15' E 103°46'611.1
2017-Oct-17 12:30N 01°13' E 103°41'510.0
2017-Oct-17 12:00N 01°13' E 103°36'3 6.7
2017-Oct-17 11:30N 01°11' E 103°33'4 7.4
2017-Oct-17 10:59N 01°08' E 103°31'510.3
2017-Oct-17 10:31N 01°10' E 103°26'612.0
2017-Oct-17 10:01N 01°14' E 103°22'  
Track history (hours):
 
Tides and Currents Weather Stations Pressure Air Temp Water Temp Dewpoint Dewpoint Depression Visibility Wind Speed Wind Dir Waves Ship Positions

Morning Calm

Last reported at 2017-Oct-18 14:42 UTC. Time now 2017-Oct-20 05:30 UTC.
Position N 01°15' E 104°12'.

Length 199 m; draft 9.1 m.

Type: Cargo ship. MMSI: 311696980.

Date/timePositionNaut miles runAvg speedWind from/ knotsBaromVisibWave heightAir tempDewpointWater temp
2017-Oct-18 14:42N 01°15' E 104°12'3 4.1
2017-Oct-18 14:00N 01°15' E 104°09'2 4.2
2017-Oct-18 13:29N 01°15' E 104°07'2 3.8
2017-Oct-18 13:00N 01°14' E 104°05'2 4.0
2017-Oct-18 12:30N 01°14' E 104°03'2 3.9
2017-Oct-18 12:00N 01°14' E 104°01'7 0.9
2017-Oct-18 03:38N 01°15' E 104°08'213.6
2017-Oct-18 03:31N 01°15' E 104°06'713.0
2017-Oct-18 03:00N 01°14' E 103°60'613.0
2017-Oct-18 02:31N 01°12' E 103°54'5 9.5
2017-Oct-18 02:00N 01°12' E 103°49'5 9.7
2017-Oct-18 01:31N 01°16' E 103°46'2 2.5
2017-Oct-18 00:51N 01°17' E 103°45'0 0.0
2017-Oct-18 00:30N 01°17' E 103°45'0 0.0
2017-Oct-17 23:45N 01°17' E 103°45'0 0.0
2017-Oct-17 23:27N 01°17' E 103°45'0 0.0
2017-Oct-17 22:54N 01°17' E 103°45'0 0.0
2017-Oct-17 22:27N 01°17' E 103°45'0 0.0
2017-Oct-17 21:51N 01°17' E 103°45'0 0.0
2017-Oct-17 21:30N 01°17' E 103°45'0 0.0
2017-Oct-17 20:54N 01°17' E 103°45'0 0.0
2017-Oct-17 20:18N 01°17' E 103°45'0 0.0
2017-Oct-17 19:51N 01°17' E 103°45'0 0.0
2017-Oct-17 19:30N 01°17' E 103°45'0 0.0
2017-Oct-17 19:00N 01°17' E 103°45'0 0.0
2017-Oct-17 18:30N 01°17' E 103°45'0 0.0
2017-Oct-17 17:33N 01°17' E 103°45'0 0.0
2017-Oct-17 17:18N 01°17' E 103°45'0 0.0
2017-Oct-17 16:57N 01°17' E 103°45'0 0.0
2017-Oct-17 16:18N 01°17' E 103°45'0 0.0
2017-Oct-17 15:50N 01°17' E 103°45'0 0.0
2017-Oct-17 15:08N 01°17' E 103°45'0 0.0
2017-Oct-17 14:35N 01°17' E 103°45'0 0.0
2017-Oct-17 14:20N 01°17' E 103°45'0 0.0
2017-Oct-17 13:50N 01°17' E 103°45'0 0.5
2017-Oct-17 13:30N 01°17' E 103°45'2 4.5
2017-Oct-17 13:00N 01°15' E 103°46'611.1
2017-Oct-17 12:30N 01°13' E 103°41'510.0
2017-Oct-17 12:00N 01°13' E 103°36'3 6.7
2017-Oct-17 11:30N 01°11' E 103°33'4 7.4
2017-Oct-17 10:59N 01°08' E 103°31'510.3
2017-Oct-17 10:31N 01°10' E 103°26'612.0
2017-Oct-17 10:01N 01°14' E 103°22'  

Dump ship's entire track history